sensor_id;sensor_type;location;lat;lon;timestamp;P1;durP1;ratioP1;P2;durP2;ratioP2
28192;SDS011;15473;50.840;3.396;2022-12-29T00:02:34;1.25;;;1.05;;
28192;SDS011;15473;50.840;3.396;2022-12-29T00:05:11;1.02;;;0.82;;
28192;SDS011;15473;50.840;3.396;2022-12-29T00:07:41;1.02;;;0.82;;
28192;SDS011;15473;50.840;3.396;2022-12-29T00:10:13;0.88;;;0.82;;
28192;SDS011;15473;50.840;3.396;2022-12-29T00:12:43;5.15;;;0.90;;
28192;SDS011;15473;50.840;3.396;2022-12-29T00:15:33;6.45;;;0.82;;
28192;SDS011;15473;50.840;3.396;2022-12-29T00:18:09;1.45;;;1.05;;
28192;SDS011;15473;50.840;3.396;2022-12-29T00:20:39;0.85;;;0.82;;
28192;SDS011;15473;50.840;3.396;2022-12-29T00:23:28;2.22;;;0.98;;
28192;SDS011;15473;50.840;3.396;2022-12-29T00:26:23;2.30;;;1.27;;
28192;SDS011;15473;50.840;3.396;2022-12-29T00:29:13;2.20;;;1.10;;
28192;SDS011;15473;50.840;3.396;2022-12-29T00:32:00;1.65;;;0.80;;
28192;SDS011;15473;50.840;3.396;2022-12-29T00:34:50;1.85;;;0.85;;
28192;SDS011;15473;50.840;3.396;2022-12-29T00:37:43;2.62;;;1.10;;
28192;SDS011;15473;50.840;3.396;2022-12-29T00:40:32;0.72;;;0.72;;
28192;SDS011;15473;50.840;3.396;2022-12-29T00:43:20;0.62;;;0.60;;
28192;SDS011;15473;50.840;3.396;2022-12-29T00:46:12;3.05;;;0.78;;
28192;SDS011;15473;50.840;3.396;2022-12-29T00:48:48;2.75;;;0.90;;
28192;SDS011;15473;50.840;3.396;2022-12-29T00:51:36;3.05;;;1.05;;
28192;SDS011;15473;50.840;3.396;2022-12-29T00:54:06;2.30;;;0.98;;
28192;SDS011;15473;50.840;3.396;2022-12-29T00:56:37;0.98;;;0.85;;
28192;SDS011;15473;50.840;3.396;2022-12-29T00:59:08;3.33;;;0.90;;
28192;SDS011;15473;50.840;3.396;2022-12-29T01:01:40;3.10;;;1.02;;
28192;SDS011;15473;50.840;3.396;2022-12-29T01:04:17;3.33;;;0.98;;
28192;SDS011;15473;50.840;3.396;2022-12-29T01:06:47;1.22;;;0.82;;
28192;SDS011;15473;50.840;3.396;2022-12-29T01:09:18;1.20;;;0.70;;
28192;SDS011;15473;50.840;3.396;2022-12-29T01:12:06;3.22;;;0.90;;
28192;SDS011;15473;50.840;3.396;2022-12-29T01:14:44;8.28;;;0.90;;
28192;SDS011;15473;50.840;3.396;2022-12-29T01:17:14;2.50;;;1.00;;
28192;SDS011;15473;50.840;3.396;2022-12-29T01:19:44;1.20;;;0.70;;
28192;SDS011;15473;50.840;3.396;2022-12-29T01:22:14;2.70;;;0.85;;
28192;SDS011;15473;50.840;3.396;2022-12-29T01:24:44;2.10;;;0.85;;
28192;SDS011;15473;50.840;3.396;2022-12-29T01:27:16;2.67;;;0.95;;
28192;SDS011;15473;50.840;3.396;2022-12-29T01:29:46;1.22;;;0.90;;
28192;SDS011;15473;50.840;3.396;2022-12-29T01:32:16;6.35;;;1.42;;
28192;SDS011;15473;50.840;3.396;2022-12-29T01:34:46;3.65;;;1.22;;
28192;SDS011;15473;50.840;3.396;2022-12-29T01:37:16;3.20;;;1.30;;
28192;SDS011;15473;50.840;3.396;2022-12-29T01:39:52;3.60;;;1.20;;
28192;SDS011;15473;50.840;3.396;2022-12-29T01:42:24;4.83;;;1.20;;
28192;SDS011;15473;50.840;3.396;2022-12-29T01:45:14;3.12;;;1.17;;
28192;SDS011;15473;50.840;3.396;2022-12-29T01:47:48;3.90;;;1.85;;
28192;SDS011;15473;50.840;3.396;2022-12-29T01:50:35;7.28;;;1.42;;
28192;SDS011;15473;50.840;3.396;2022-12-29T01:53:18;2.62;;;1.42;;
28192;SDS011;15473;50.840;3.396;2022-12-29T01:55:50;6.17;;;0.82;;
28192;SDS011;15473;50.840;3.396;2022-12-29T01:58:22;10.20;;;1.60;;
28192;SDS011;15473;50.840;3.396;2022-12-29T02:00:55;2.30;;;0.90;;
28192;SDS011;15473;50.840;3.396;2022-12-29T02:03:25;4.15;;;1.12;;
28192;SDS011;15473;50.840;3.396;2022-12-29T02:06:00;2.75;;;0.80;;
28192;SDS011;15473;50.840;3.396;2022-12-29T02:08:44;2.02;;;1.07;;
28192;SDS011;15473;50.840;3.396;2022-12-29T02:11:16;1.95;;;0.70;;
28192;SDS011;15473;50.840;3.396;2022-12-29T02:13:46;4.25;;;0.93;;
28192;SDS011;15473;50.840;3.396;2022-12-29T02:33:21;1.32;;;0.60;;
28192;SDS011;15473;50.840;3.396;2022-12-29T02:41:46;4.05;;;0.90;;
28192;SDS011;15473;50.840;3.396;2022-12-29T02:47:15;5.28;;;0.90;;
28192;SDS011;15473;50.840;3.396;2022-12-29T02:52:49;5.75;;;0.98;;
28192;SDS011;15473;50.840;3.396;2022-12-29T02:55:22;3.30;;;0.93;;
28192;SDS011;15473;50.840;3.396;2022-12-29T02:58:11;3.35;;;0.85;;
28192;SDS011;15473;50.840;3.396;2022-12-29T03:00:37;3.05;;;0.90;;
28192;SDS011;15473;50.840;3.396;2022-12-29T03:03:28;3.45;;;0.90;;
28192;SDS011;15473;50.840;3.396;2022-12-29T03:08:55;3.80;;;0.70;;
28192;SDS011;15473;50.840;3.396;2022-12-29T03:11:32;3.10;;;0.82;;
28192;SDS011;15473;50.840;3.396;2022-12-29T03:14:44;5.35;;;0.72;;
28192;SDS011;15473;50.840;3.396;2022-12-29T03:17:34;2.20;;;0.80;;
28192;SDS011;15473;50.840;3.396;2022-12-29T03:20:24;2.87;;;0.85;;
28192;SDS011;15473;50.840;3.396;2022-12-29T03:22:53;7.42;;;1.32;;
28192;SDS011;15473;50.840;3.396;2022-12-29T03:25:28;3.85;;;1.20;;
28192;SDS011;15473;50.840;3.396;2022-12-29T03:28:03;2.58;;;0.70;;
28192;SDS011;15473;50.840;3.396;2022-12-29T03:30:38;6.08;;;0.98;;
28192;SDS011;15473;50.840;3.396;2022-12-29T03:33:13;7.03;;;1.02;;
28192;SDS011;15473;50.840;3.396;2022-12-29T03:35:45;5.87;;;0.98;;
28192;SDS011;15473;50.840;3.396;2022-12-29T03:38:25;2.37;;;0.68;;
28192;SDS011;15473;50.840;3.396;2022-12-29T03:41:07;2.27;;;0.88;;
28192;SDS011;15473;50.840;3.396;2022-12-29T03:43:43;5.62;;;1.00;;
28192;SDS011;15473;50.840;3.396;2022-12-29T03:46:14;3.05;;;0.95;;
28192;SDS011;15473;50.840;3.396;2022-12-29T03:48:44;6.47;;;1.07;;
28192;SDS011;15473;50.840;3.396;2022-12-29T03:51:14;2.77;;;0.90;;
28192;SDS011;15473;50.840;3.396;2022-12-29T03:53:45;3.98;;;0.95;;
28192;SDS011;15473;50.840;3.396;2022-12-29T03:56:15;6.15;;;1.00;;
28192;SDS011;15473;50.840;3.396;2022-12-29T03:58:45;6.22;;;0.85;;
28192;SDS011;15473;50.840;3.396;2022-12-29T04:01:28;11.12;;;1.12;;
28192;SDS011;15473;50.840;3.396;2022-12-29T04:03:58;2.55;;;0.68;;
28192;SDS011;15473;50.840;3.396;2022-12-29T04:06:35;4.70;;;0.82;;
28192;SDS011;15473;50.840;3.396;2022-12-29T04:09:11;4.58;;;0.70;;
28192;SDS011;15473;50.840;3.396;2022-12-29T04:11:48;2.92;;;0.98;;
28192;SDS011;15473;50.840;3.396;2022-12-29T04:14:18;5.47;;;1.02;;
28192;SDS011;15473;50.840;3.396;2022-12-29T04:16:48;3.80;;;1.17;;
28192;SDS011;15473;50.840;3.396;2022-12-29T04:19:24;4.95;;;0.88;;
28192;SDS011;15473;50.840;3.396;2022-12-29T04:21:54;2.45;;;0.85;;
28192;SDS011;15473;50.840;3.396;2022-12-29T04:24:24;3.95;;;0.90;;
28192;SDS011;15473;50.840;3.396;2022-12-29T04:26:54;2.22;;;0.82;;
28192;SDS011;15473;50.840;3.396;2022-12-29T04:29:24;3.80;;;0.72;;
28192;SDS011;15473;50.840;3.396;2022-12-29T04:32:02;0.82;;;0.65;;
28192;SDS011;15473;50.840;3.396;2022-12-29T04:34:33;4.58;;;0.68;;
28192;SDS011;15473;50.840;3.396;2022-12-29T04:37:03;2.50;;;0.72;;
28192;SDS011;15473;50.840;3.396;2022-12-29T04:39:40;1.37;;;0.60;;
28192;SDS011;15473;50.840;3.396;2022-12-29T04:42:10;2.75;;;0.95;;
28192;SDS011;15473;50.840;3.396;2022-12-29T04:44:42;7.37;;;0.90;;
28192;SDS011;15473;50.840;3.396;2022-12-29T04:47:18;5.28;;;0.88;;
28192;SDS011;15473;50.840;3.396;2022-12-29T04:49:48;6.08;;;1.27;;
28192;SDS011;15473;50.840;3.396;2022-12-29T04:52:24;6.17;;;1.00;;
28192;SDS011;15473;50.840;3.396;2022-12-29T04:55:00;4.83;;;1.30;;
28192;SDS011;15473;50.840;3.396;2022-12-29T04:57:30;3.33;;;1.00;;
28192;SDS011;15473;50.840;3.396;2022-12-29T05:00:01;6.80;;;1.05;;
28192;SDS011;15473;50.840;3.396;2022-12-29T05:02:33;4.00;;;1.37;;
28192;SDS011;15473;50.840;3.396;2022-12-29T05:05:10;4.58;;;0.60;;
28192;SDS011;15473;50.840;3.396;2022-12-29T05:07:40;2.62;;;1.05;;
28192;SDS011;15473;50.840;3.396;2022-12-29T05:10:10;7.00;;;0.70;;
28192;SDS011;15473;50.840;3.396;2022-12-29T05:12:40;2.05;;;1.00;;
28192;SDS011;15473;50.840;3.396;2022-12-29T05:15:14;4.37;;;0.65;;
28192;SDS011;15473;50.840;3.396;2022-12-29T05:17:51;5.90;;;1.20;;
28192;SDS011;15473;50.840;3.396;2022-12-29T05:20:28;3.42;;;0.70;;
28192;SDS011;15473;50.840;3.396;2022-12-29T05:22:58;5.37;;;1.00;;
28192;SDS011;15473;50.840;3.396;2022-12-29T05:25:34;4.25;;;0.78;;
28192;SDS011;15473;50.840;3.396;2022-12-29T05:28:04;3.85;;;1.02;;
28192;SDS011;15473;50.840;3.396;2022-12-29T05:30:41;8.55;;;0.95;;
28192;SDS011;15473;50.840;3.396;2022-12-29T05:33:11;1.42;;;0.98;;
28192;SDS011;15473;50.840;3.396;2022-12-29T05:35:41;3.80;;;1.47;;
28192;SDS011;15473;50.840;3.396;2022-12-29T05:38:11;4.00;;;1.70;;
28192;SDS011;15473;50.840;3.396;2022-12-29T05:40:41;6.60;;;1.42;;
28192;SDS011;15473;50.840;3.396;2022-12-29T05:43:13;6.72;;;1.82;;
28192;SDS011;15473;50.840;3.396;2022-12-29T05:45:43;2.62;;;0.93;;
28192;SDS011;15473;50.840;3.396;2022-12-29T05:48:20;2.85;;;0.82;;
28192;SDS011;15473;50.840;3.396;2022-12-29T05:50:53;3.40;;;0.90;;
28192;SDS011;15473;50.840;3.396;2022-12-29T05:53:27;5.67;;;1.17;;
28192;SDS011;15473;50.840;3.396;2022-12-29T05:55:57;6.20;;;0.82;;
28192;SDS011;15473;50.840;3.396;2022-12-29T05:58:27;5.30;;;1.22;;
28192;SDS011;15473;50.840;3.396;2022-12-29T06:00:58;4.03;;;1.10;;
28192;SDS011;15473;50.840;3.396;2022-12-29T06:03:41;4.70;;;1.50;;
28192;SDS011;15473;50.840;3.396;2022-12-29T06:06:17;6.42;;;0.80;;
28192;SDS011;15473;50.840;3.396;2022-12-29T06:08:47;9.15;;;1.85;;
28192;SDS011;15473;50.840;3.396;2022-12-29T06:11:24;5.05;;;0.98;;
28192;SDS011;15473;50.840;3.396;2022-12-29T06:13:54;4.45;;;1.22;;
28192;SDS011;15473;50.840;3.396;2022-12-29T06:16:25;3.98;;;1.00;;
28192;SDS011;15473;50.840;3.396;2022-12-29T06:18:55;5.28;;;1.20;;
28192;SDS011;15473;50.840;3.396;2022-12-29T06:21:25;10.05;;;1.25;;
28192;SDS011;15473;50.840;3.396;2022-12-29T06:23:55;7.55;;;1.32;;
28192;SDS011;15473;50.840;3.396;2022-12-29T06:26:33;8.60;;;1.55;;
28192;SDS011;15473;50.840;3.396;2022-12-29T06:29:03;7.72;;;1.40;;
28192;SDS011;15473;50.840;3.396;2022-12-29T06:31:39;8.23;;;1.20;;
28192;SDS011;15473;50.840;3.396;2022-12-29T06:34:15;12.20;;;1.62;;
28192;SDS011;15473;50.840;3.396;2022-12-29T06:36:46;4.80;;;1.20;;
28192;SDS011;15473;50.840;3.396;2022-12-29T06:39:16;5.33;;;1.10;;
28192;SDS011;15473;50.840;3.396;2022-12-29T06:41:46;4.22;;;1.05;;
28192;SDS011;15473;50.840;3.396;2022-12-29T06:44:22;7.83;;;1.37;;
28192;SDS011;15473;50.840;3.396;2022-12-29T06:46:52;8.20;;;1.35;;
28192;SDS011;15473;50.840;3.396;2022-12-29T06:49:24;6.28;;;1.52;;
28192;SDS011;15473;50.840;3.396;2022-12-29T06:52:00;12.03;;;2.27;;
28192;SDS011;15473;50.840;3.396;2022-12-29T06:54:44;8.48;;;1.45;;
28192;SDS011;15473;50.840;3.396;2022-12-29T06:57:14;7.58;;;1.47;;
28192;SDS011;15473;50.840;3.396;2022-12-29T06:59:44;10.15;;;2.45;;
28192;SDS011;15473;50.840;3.396;2022-12-29T07:02:14;6.10;;;1.30;;
28192;SDS011;15473;50.840;3.396;2022-12-29T07:04:52;7.50;;;1.65;;
28192;SDS011;15473;50.840;3.396;2022-12-29T07:07:22;4.53;;;1.05;;
28192;SDS011;15473;50.840;3.396;2022-12-29T07:09:55;4.70;;;1.17;;
28192;SDS011;15473;50.840;3.396;2022-12-29T07:12:26;9.95;;;1.77;;
28192;SDS011;15473;50.840;3.396;2022-12-29T07:14:56;7.03;;;1.30;;
28192;SDS011;15473;50.840;3.396;2022-12-29T07:17:26;2.90;;;1.00;;
28192;SDS011;15473;50.840;3.396;2022-12-29T07:20:02;3.75;;;1.02;;
28192;SDS011;15473;50.840;3.396;2022-12-29T07:22:33;11.65;;;1.67;;
28192;SDS011;15473;50.840;3.396;2022-12-29T07:25:03;8.88;;;1.45;;
28192;SDS011;15473;50.840;3.396;2022-12-29T07:27:35;5.10;;;1.40;;
28192;SDS011;15473;50.840;3.396;2022-12-29T07:30:05;9.68;;;1.65;;
28192;SDS011;15473;50.840;3.396;2022-12-29T07:32:36;8.15;;;1.90;;
28192;SDS011;15473;50.840;3.396;2022-12-29T07:35:06;6.00;;;1.40;;
28192;SDS011;15473;50.840;3.396;2022-12-29T07:37:36;8.43;;;1.45;;
28192;SDS011;15473;50.840;3.396;2022-12-29T07:40:07;10.28;;;2.17;;
28192;SDS011;15473;50.840;3.396;2022-12-29T07:42:38;7.37;;;1.40;;
28192;SDS011;15473;50.840;3.396;2022-12-29T07:45:08;7.55;;;2.33;;
28192;SDS011;15473;50.840;3.396;2022-12-29T07:47:40;13.38;;;1.75;;
28192;SDS011;15473;50.840;3.396;2022-12-29T07:50:10;6.08;;;1.30;;
28192;SDS011;15473;50.840;3.396;2022-12-29T07:52:46;6.90;;;2.00;;
28192;SDS011;15473;50.840;3.396;2022-12-29T07:55:23;9.05;;;1.98;;
28192;SDS011;15473;50.840;3.396;2022-12-29T07:57:54;5.03;;;1.25;;
28192;SDS011;15473;50.840;3.396;2022-12-29T08:00:31;3.12;;;1.15;;
28192;SDS011;15473;50.840;3.396;2022-12-29T08:03:14;8.40;;;2.05;;
28192;SDS011;15473;50.840;3.396;2022-12-29T08:05:44;6.53;;;1.70;;
28192;SDS011;15473;50.840;3.396;2022-12-29T08:08:14;4.17;;;1.15;;
28192;SDS011;15473;50.840;3.396;2022-12-29T08:10:50;4.17;;;1.60;;
28192;SDS011;15473;50.840;3.396;2022-12-29T08:13:20;7.97;;;1.40;;
28192;SDS011;15473;50.840;3.396;2022-12-29T08:15:51;5.10;;;1.35;;
28192;SDS011;15473;50.840;3.396;2022-12-29T08:18:21;5.97;;;1.15;;
28192;SDS011;15473;50.840;3.396;2022-12-29T08:20:51;8.55;;;1.15;;
28192;SDS011;15473;50.840;3.396;2022-12-29T08:23:21;5.03;;;1.15;;
28192;SDS011;15473;50.840;3.396;2022-12-29T08:25:59;9.05;;;1.47;;
28192;SDS011;15473;50.840;3.396;2022-12-29T08:28:30;10.32;;;1.45;;
28192;SDS011;15473;50.840;3.396;2022-12-29T08:31:02;14.90;;;1.92;;
28192;SDS011;15473;50.840;3.396;2022-12-29T08:33:38;7.87;;;1.02;;
28192;SDS011;15473;50.840;3.396;2022-12-29T08:36:09;17.17;;;2.08;;
28192;SDS011;15473;50.840;3.396;2022-12-29T08:38:45;5.83;;;1.37;;
28192;SDS011;15473;50.840;3.396;2022-12-29T08:41:15;11.12;;;2.12;;
28192;SDS011;15473;50.840;3.396;2022-12-29T08:43:46;8.25;;;1.75;;
28192;SDS011;15473;50.840;3.396;2022-12-29T08:46:17;7.50;;;1.22;;
28192;SDS011;15473;50.840;3.396;2022-12-29T08:48:47;4.78;;;1.30;;
28192;SDS011;15473;50.840;3.396;2022-12-29T08:51:24;8.18;;;2.87;;
28192;SDS011;15473;50.840;3.396;2022-12-29T08:53:54;15.78;;;2.17;;
28192;SDS011;15473;50.840;3.396;2022-12-29T08:56:28;10.80;;;1.80;;
28192;SDS011;15473;50.840;3.396;2022-12-29T08:58:59;7.95;;;2.00;;
28192;SDS011;15473;50.840;3.396;2022-12-29T09:01:35;12.13;;;1.87;;
28192;SDS011;15473;50.840;3.396;2022-12-29T09:04:08;10.70;;;1.80;;
28192;SDS011;15473;50.840;3.396;2022-12-29T09:06:38;12.47;;;2.37;;
28192;SDS011;15473;50.840;3.396;2022-12-29T09:09:08;10.48;;;1.90;;
28192;SDS011;15473;50.840;3.396;2022-12-29T09:11:39;7.42;;;1.40;;
28192;SDS011;15473;50.840;3.396;2022-12-29T09:14:15;15.10;;;2.25;;
28192;SDS011;15473;50.840;3.396;2022-12-29T09:16:45;6.15;;;1.50;;
28192;SDS011;15473;50.840;3.396;2022-12-29T09:19:40;11.50;;;2.37;;
28192;SDS011;15473;50.840;3.396;2022-12-29T09:22:10;12.10;;;1.67;;
28192;SDS011;15473;50.840;3.396;2022-12-29T09:24:40;5.87;;;1.45;;
28192;SDS011;15473;50.840;3.396;2022-12-29T09:27:10;7.28;;;1.90;;
28192;SDS011;15473;50.840;3.396;2022-12-29T09:29:43;11.55;;;1.37;;
28192;SDS011;15473;50.840;3.396;2022-12-29T09:32:15;9.50;;;1.75;;
28192;SDS011;15473;50.840;3.396;2022-12-29T09:34:45;11.20;;;1.52;;
28192;SDS011;15473;50.840;3.396;2022-12-29T09:37:15;4.87;;;1.50;;
28192;SDS011;15473;50.840;3.396;2022-12-29T09:39:51;14.23;;;2.77;;
28192;SDS011;15473;50.840;3.396;2022-12-29T09:45:17;10.53;;;1.87;;
28192;SDS011;15473;50.840;3.396;2022-12-29T09:47:49;6.03;;;1.80;;
28192;SDS011;15473;50.840;3.396;2022-12-29T09:50:31;13.00;;;2.17;;
28192;SDS011;15473;50.840;3.396;2022-12-29T09:53:17;8.78;;;1.77;;
28192;SDS011;15473;50.840;3.396;2022-12-29T09:55:55;4.55;;;1.20;;
28192;SDS011;15473;50.840;3.396;2022-12-29T09:58:41;6.28;;;1.27;;
28192;SDS011;15473;50.840;3.396;2022-12-29T10:04:04;10.48;;;1.92;;
28192;SDS011;15473;50.840;3.396;2022-12-29T10:06:42;7.42;;;1.35;;
28192;SDS011;15473;50.840;3.396;2022-12-29T10:15:02;10.68;;;1.50;;
28192;SDS011;15473;50.840;3.396;2022-12-29T10:26:03;11.05;;;1.50;;
28192;SDS011;15473;50.840;3.396;2022-12-29T10:28:47;5.30;;;1.42;;
28192;SDS011;15473;50.840;3.396;2022-12-29T10:31:25;7.67;;;1.15;;
28192;SDS011;15473;50.840;3.396;2022-12-29T10:33:57;7.50;;;1.72;;
28192;SDS011;15473;50.840;3.396;2022-12-29T10:44:48;7.22;;;1.70;;
28192;SDS011;15473;50.840;3.396;2022-12-29T10:47:20;5.90;;;1.37;;
28192;SDS011;15473;50.840;3.396;2022-12-29T10:49:51;8.50;;;1.30;;
28192;SDS011;15473;50.840;3.396;2022-12-29T10:52:21;7.28;;;1.87;;
28192;SDS011;15473;50.840;3.396;2022-12-29T10:55:03;6.95;;;1.65;;
28192;SDS011;15473;50.840;3.396;2022-12-29T11:06:24;8.70;;;1.70;;
28192;SDS011;15473;50.840;3.396;2022-12-29T11:08:14;5.12;;;1.40;;
28192;SDS011;15473;50.840;3.396;2022-12-29T11:10:45;5.85;;;1.60;;
28192;SDS011;15473;50.840;3.396;2022-12-29T11:13:18;7.47;;;1.95;;
28192;SDS011;15473;50.840;3.396;2022-12-29T11:15:50;10.90;;;1.98;;
28192;SDS011;15473;50.840;3.396;2022-12-29T11:18:31;6.35;;;1.62;;
28192;SDS011;15473;50.840;3.396;2022-12-29T11:24:05;5.33;;;1.47;;
28192;SDS011;15473;50.840;3.396;2022-12-29T11:29:29;8.95;;;1.87;;
28192;SDS011;15473;50.840;3.396;2022-12-29T11:32:22;8.13;;;1.65;;
28192;SDS011;15473;50.840;3.396;2022-12-29T11:34:53;13.75;;;1.75;;
28192;SDS011;15473;50.840;3.396;2022-12-29T11:40:06;7.83;;;1.45;;
28192;SDS011;15473;50.840;3.396;2022-12-29T11:42:47;8.57;;;1.77;;
28192;SDS011;15473;50.840;3.396;2022-12-29T11:48:06;5.90;;;1.70;;
28192;SDS011;15473;50.840;3.396;2022-12-29T11:50:39;10.38;;;1.80;;
28192;SDS011;15473;50.840;3.396;2022-12-29T11:53:19;6.03;;;1.27;;
28192;SDS011;15473;50.840;3.396;2022-12-29T11:56:02;7.37;;;1.85;;
28192;SDS011;15473;50.840;3.396;2022-12-29T11:58:38;4.83;;;1.27;;
28192;SDS011;15473;50.840;3.396;2022-12-29T12:01:13;5.00;;;1.27;;
28192;SDS011;15473;50.840;3.396;2022-12-29T12:03:46;7.05;;;1.80;;
28192;SDS011;15473;50.840;3.396;2022-12-29T12:06:18;11.55;;;1.98;;
28192;SDS011;15473;50.840;3.396;2022-12-29T12:08:53;7.10;;;1.60;;
28192;SDS011;15473;50.840;3.396;2022-12-29T12:11:29;1.32;;;0.45;;
28192;SDS011;15473;50.840;3.396;2022-12-29T12:14:15;3.30;;;0.88;;
28192;SDS011;15473;50.840;3.396;2022-12-29T12:16:50;2.67;;;0.80;;
28192;SDS011;15473;50.840;3.396;2022-12-29T12:19:34;3.22;;;0.82;;
28192;SDS011;15473;50.840;3.396;2022-12-29T12:28:15;3.02;;;1.02;;
28192;SDS011;15473;50.840;3.396;2022-12-29T12:30:53;6.45;;;1.50;;
28192;SDS011;15473;50.840;3.396;2022-12-29T12:33:29;10.48;;;1.77;;
28192;SDS011;15473;50.840;3.396;2022-12-29T12:36:14;3.75;;;0.80;;
28192;SDS011;15473;50.840;3.396;2022-12-29T12:38:47;6.05;;;0.98;;
28192;SDS011;15473;50.840;3.396;2022-12-29T12:44:29;5.60;;;1.10;;
28192;SDS011;15473;50.840;3.396;2022-12-29T12:49:57;5.28;;;1.10;;
28192;SDS011;15473;50.840;3.396;2022-12-29T12:52:49;8.93;;;1.70;;
28192;SDS011;15473;50.840;3.396;2022-12-29T13:00:57;14.58;;;1.72;;
28192;SDS011;15473;50.840;3.396;2022-12-29T13:06:33;8.38;;;1.35;;
28192;SDS011;15473;50.840;3.396;2022-12-29T13:09:45;7.50;;;1.37;;
28192;SDS011;15473;50.840;3.396;2022-12-29T13:12:23;4.45;;;2.12;;
28192;SDS011;15473;50.840;3.396;2022-12-29T13:21:01;2.22;;;0.60;;
28192;SDS011;15473;50.840;3.396;2022-12-29T13:23:46;3.67;;;0.90;;
28192;SDS011;15473;50.840;3.396;2022-12-29T13:26:51;3.00;;;0.90;;
28192;SDS011;15473;50.840;3.396;2022-12-29T13:32:40;1.82;;;1.20;;
28192;SDS011;15473;50.840;3.396;2022-12-29T13:35:28;1.42;;;0.80;;
28192;SDS011;15473;50.840;3.396;2022-12-29T13:38:12;1.45;;;0.80;;
28192;SDS011;15473;50.840;3.396;2022-12-29T13:41:12;4.72;;;1.07;;
28192;SDS011;15473;50.840;3.396;2022-12-29T13:43:40;2.75;;;1.35;;
28192;SDS011;15473;50.840;3.396;2022-12-29T13:46:15;2.75;;;0.80;;
28192;SDS011;15473;50.840;3.396;2022-12-29T13:48:59;3.27;;;1.25;;
28192;SDS011;15473;50.840;3.396;2022-12-29T13:51:38;4.20;;;1.03;;
28192;SDS011;15473;50.840;3.396;2022-12-29T13:54:14;3.10;;;1.02;;
28192;SDS011;15473;50.840;3.396;2022-12-29T13:56:52;4.80;;;1.10;;
28192;SDS011;15473;50.840;3.396;2022-12-29T14:05:00;5.17;;;1.25;;
28192;SDS011;15473;50.840;3.396;2022-12-29T14:07:36;4.12;;;1.45;;
28192;SDS011;15473;50.840;3.396;2022-12-29T14:13:02;8.48;;;1.75;;
28192;SDS011;15473;50.840;3.396;2022-12-29T14:15:43;5.65;;;1.42;;
28192;SDS011;15473;50.840;3.396;2022-12-29T14:18:30;8.75;;;1.37;;
28192;SDS011;15473;50.840;3.396;2022-12-29T14:20:58;2.72;;;0.93;;
28192;SDS011;15473;50.840;3.396;2022-12-29T14:23:40;2.95;;;1.02;;
28192;SDS011;15473;50.840;3.396;2022-12-29T14:31:54;8.03;;;2.08;;
28192;SDS011;15473;50.840;3.396;2022-12-29T14:34:28;4.53;;;1.10;;
28192;SDS011;15473;50.840;3.396;2022-12-29T14:37:02;5.67;;;1.30;;
28192;SDS011;15473;50.840;3.396;2022-12-29T14:42:13;4.47;;;1.00;;
28192;SDS011;15473;50.840;3.396;2022-12-29T14:44:52;6.92;;;1.42;;
28192;SDS011;15473;50.840;3.396;2022-12-29T14:47:54;7.90;;;1.70;;
28192;SDS011;15473;50.840;3.396;2022-12-29T14:52:57;7.80;;;1.42;;
28192;SDS011;15473;50.840;3.396;2022-12-29T14:58:15;10.53;;;1.50;;
28192;SDS011;15473;50.840;3.396;2022-12-29T15:01:02;12.73;;;1.52;;
28192;SDS011;15473;50.840;3.396;2022-12-29T15:03:32;8.58;;;1.65;;
28192;SDS011;15473;50.840;3.396;2022-12-29T15:11:24;6.10;;;1.47;;
28192;SDS011;15473;50.840;3.396;2022-12-29T15:14:33;3.67;;;0.98;;
28192;SDS011;15473;50.840;3.396;2022-12-29T15:17:24;4.35;;;1.30;;
28192;SDS011;15473;50.840;3.396;2022-12-29T15:19:59;6.47;;;1.25;;
28192;SDS011;15473;50.840;3.396;2022-12-29T15:22:37;3.85;;;1.37;;
28192;SDS011;15473;50.840;3.396;2022-12-29T15:25:15;3.67;;;1.35;;
28192;SDS011;15473;50.840;3.396;2022-12-29T15:27:50;6.55;;;0.98;;
28192;SDS011;15473;50.840;3.396;2022-12-29T15:30:22;4.00;;;1.57;;
28192;SDS011;15473;50.840;3.396;2022-12-29T15:32:59;8.30;;;1.62;;
28192;SDS011;15473;50.840;3.396;2022-12-29T15:35:33;6.72;;;2.25;;
28192;SDS011;15473;50.840;3.396;2022-12-29T15:38:14;7.08;;;2.08;;
28192;SDS011;15473;50.840;3.396;2022-12-29T15:40:46;6.15;;;1.50;;
28192;SDS011;15473;50.840;3.396;2022-12-29T15:43:22;3.25;;;1.37;;
28192;SDS011;15473;50.840;3.396;2022-12-29T15:45:54;4.50;;;1.05;;
28192;SDS011;15473;50.840;3.396;2022-12-29T15:48:31;6.10;;;1.12;;
28192;SDS011;15473;50.840;3.396;2022-12-29T15:51:16;8.40;;;1.67;;
28192;SDS011;15473;50.840;3.396;2022-12-29T15:53:53;5.55;;;1.42;;
28192;SDS011;15473;50.840;3.396;2022-12-29T15:56:31;10.50;;;1.82;;
28192;SDS011;15473;50.840;3.396;2022-12-29T15:59:03;6.92;;;1.80;;
28192;SDS011;15473;50.840;3.396;2022-12-29T16:01:40;6.67;;;2.05;;
28192;SDS011;15473;50.840;3.396;2022-12-29T16:04:11;8.15;;;2.15;;
28192;SDS011;15473;50.840;3.396;2022-12-29T16:07:27;5.67;;;1.62;;
28192;SDS011;15473;50.840;3.396;2022-12-29T16:09:35;8.88;;;2.10;;
28192;SDS011;15473;50.840;3.396;2022-12-29T16:12:54;10.20;;;2.47;;
28192;SDS011;15473;50.840;3.396;2022-12-29T16:14:54;5.33;;;2.12;;
28192;SDS011;15473;50.840;3.396;2022-12-29T16:17:33;9.75;;;2.35;;
28192;SDS011;15473;50.840;3.396;2022-12-29T16:20:00;11.65;;;1.92;;
28192;SDS011;15473;50.840;3.396;2022-12-29T16:22:33;9.30;;;2.47;;
28192;SDS011;15473;50.840;3.396;2022-12-29T16:27:56;8.95;;;2.17;;
28192;SDS011;15473;50.840;3.396;2022-12-29T16:30:29;11.83;;;2.60;;
28192;SDS011;15473;50.840;3.396;2022-12-29T16:33:03;5.58;;;1.98;;
28192;SDS011;15473;50.840;3.396;2022-12-29T16:35:49;14.00;;;2.87;;
28192;SDS011;15473;50.840;3.396;2022-12-29T16:38:30;14.75;;;2.25;;
28192;SDS011;15473;50.840;3.396;2022-12-29T16:41:02;9.60;;;2.40;;
28192;SDS011;15473;50.840;3.396;2022-12-29T16:43:33;7.50;;;1.85;;
28192;SDS011;15473;50.840;3.396;2022-12-29T16:46:17;14.50;;;3.08;;
28192;SDS011;15473;50.840;3.396;2022-12-29T16:48:55;9.00;;;2.52;;
28192;SDS011;15473;50.840;3.396;2022-12-29T16:51:34;6.87;;;2.15;;
28192;SDS011;15473;50.840;3.396;2022-12-29T16:54:05;8.30;;;1.95;;
28192;SDS011;15473;50.840;3.396;2022-12-29T16:56:43;10.10;;;2.75;;
28192;SDS011;15473;50.840;3.396;2022-12-29T16:59:29;15.15;;;1.98;;
28192;SDS011;15473;50.840;3.396;2022-12-29T17:02:07;4.50;;;2.05;;
28192;SDS011;15473;50.840;3.396;2022-12-29T17:04:44;8.60;;;2.33;;
28192;SDS011;15473;50.840;3.396;2022-12-29T17:07:17;9.75;;;2.27;;
28192;SDS011;15473;50.840;3.396;2022-12-29T17:09:49;7.95;;;1.85;;
28192;SDS011;15473;50.840;3.396;2022-12-29T17:12:28;4.80;;;2.25;;
28192;SDS011;15473;50.840;3.396;2022-12-29T17:15:03;3.70;;;2.00;;
28192;SDS011;15473;50.840;3.396;2022-12-29T17:17:48;14.13;;;1.90;;
28192;SDS011;15473;50.840;3.396;2022-12-29T17:20:19;11.08;;;2.12;;
28192;SDS011;15473;50.840;3.396;2022-12-29T17:22:51;9.88;;;2.33;;
28192;SDS011;15473;50.840;3.396;2022-12-29T17:25:29;4.30;;;1.70;;
28192;SDS011;15473;50.840;3.396;2022-12-29T17:28:03;6.78;;;1.65;;
28192;SDS011;15473;50.840;3.396;2022-12-29T17:30:36;5.78;;;2.25;;
28192;SDS011;15473;50.840;3.396;2022-12-29T17:33:15;9.55;;;2.50;;
28192;SDS011;15473;50.840;3.396;2022-12-29T17:35:53;9.30;;;2.77;;
28192;SDS011;15473;50.840;3.396;2022-12-29T17:38:27;9.50;;;2.95;;
28192;SDS011;15473;50.840;3.396;2022-12-29T17:40:59;4.87;;;1.92;;
28192;SDS011;15473;50.840;3.396;2022-12-29T17:43:29;7.35;;;2.20;;
28192;SDS011;15473;50.840;3.396;2022-12-29T17:46:01;13.43;;;2.65;;
28192;SDS011;15473;50.840;3.396;2022-12-29T17:48:33;4.60;;;2.08;;
28192;SDS011;15473;50.840;3.396;2022-12-29T17:51:03;4.65;;;2.20;;
28192;SDS011;15473;50.840;3.396;2022-12-29T17:53:39;9.65;;;2.40;;
28192;SDS011;15473;50.840;3.396;2022-12-29T17:56:09;10.03;;;3.25;;